sensor_id;sensor_type;location;lat;lon;timestamp;pressure;altitude;pressure_sealevel;temperature;humidity
21826;BME280;11075;47.944;11.776;2022-12-15T00:02:43;93291.72;;;8.13;24.50
21826;BME280;11075;47.944;11.776;2022-12-15T00:05:29;93285.56;;;7.54;25.44
21826;BME280;11075;47.944;11.776;2022-12-15T00:08:16;93285.00;;;5.76;27.36
21826;BME280;11075;47.944;11.776;2022-12-15T00:11:02;93272.50;;;6.08;27.03
21826;BME280;11075;47.944;11.776;2022-12-15T00:13:48;93282.97;;;7.07;25.95
21826;BME280;11075;47.944;11.776;2022-12-15T00:16:34;93297.31;;;6.99;25.84
21826;BME280;11075;47.944;11.776;2022-12-15T00:19:19;93284.72;;;5.93;27.05
21826;BME280;11075;47.944;11.776;2022-12-15T00:22:05;93282.34;;;5.76;27.24
21826;BME280;11075;47.944;11.776;2022-12-15T00:24:51;93274.75;;;5.78;27.65
21826;BME280;11075;47.944;11.776;2022-12-15T00:27:36;93267.94;;;4.76;29.15
21826;BME280;11075;47.944;11.776;2022-12-15T00:30:22;93291.63;;;7.01;25.81
21826;BME280;11075;47.944;11.776;2022-12-15T00:33:11;93286.44;;;6.92;25.98
21826;BME280;11075;47.944;11.776;2022-12-15T00:35:58;93276.09;;;6.43;26.83
21826;BME280;11075;47.944;11.776;2022-12-15T00:38:44;93296.31;;;6.88;26.02
21826;BME280;11075;47.944;11.776;2022-12-15T00:41:13;93292.97;;;5.60;27.45
21826;BME280;11075;47.944;11.776;2022-12-15T00:43:40;93309.25;;;7.52;25.13
21826;BME280;11075;47.944;11.776;2022-12-15T00:46:07;93315.97;;;7.27;25.50
21826;BME280;11075;47.944;11.776;2022-12-15T00:48:53;93296.72;;;5.99;27.31
21826;BME280;11075;47.944;11.776;2022-12-15T00:51:21;93288.06;;;5.50;27.92
21826;BME280;11075;47.944;11.776;2022-12-15T00:53:48;93302.53;;;6.60;26.22
21826;BME280;11075;47.944;11.776;2022-12-15T00:56:40;93267.91;;;5.12;28.46
21826;BME280;11075;47.944;11.776;2022-12-15T00:59:26;93285.16;;;5.15;27.78
21826;BME280;11075;47.944;11.776;2022-12-15T01:02:11;93264.09;;;4.16;28.92
21826;BME280;11075;47.944;11.776;2022-12-15T01:04:56;93271.81;;;6.11;26.85
21826;BME280;11075;47.944;11.776;2022-12-15T01:07:42;93276.44;;;4.32;28.53
21826;BME280;11075;47.944;11.776;2022-12-15T01:10:27;93289.03;;;5.97;27.15
21826;BME280;11075;47.944;11.776;2022-12-15T01:13:12;93302.16;;;6.03;27.18
21826;BME280;11075;47.944;11.776;2022-12-15T01:15:58;93306.50;;;6.51;26.25
21826;BME280;11075;47.944;11.776;2022-12-15T01:18:44;93298.47;;;5.79;27.50
21826;BME280;11075;47.944;11.776;2022-12-15T01:21:30;93326.34;;;7.13;25.42
21826;BME280;11075;47.944;11.776;2022-12-15T01:23:57;93316.34;;;6.94;26.09
21826;BME280;11075;47.944;11.776;2022-12-15T01:26:24;93339.22;;;7.07;25.39
21826;BME280;11075;47.944;11.776;2022-12-15T01:28:51;93340.94;;;7.85;24.45
21826;BME280;11075;47.944;11.776;2022-12-15T01:31:17;93322.78;;;6.02;26.91
21826;BME280;11075;47.944;11.776;2022-12-15T01:33:45;93335.13;;;5.79;26.86
21826;BME280;11075;47.944;11.776;2022-12-15T01:36:11;93319.31;;;6.02;26.66
21826;BME280;11075;47.944;11.776;2022-12-15T01:38:38;93333.63;;;6.37;26.41
21826;BME280;11075;47.944;11.776;2022-12-15T01:41:08;93323.63;;;5.26;27.84
21826;BME280;11075;47.944;11.776;2022-12-15T01:43:38;93329.38;;;6.20;26.28
21826;BME280;11075;47.944;11.776;2022-12-15T01:46:20;93321.91;;;5.98;27.02
21826;BME280;11075;47.944;11.776;2022-12-15T01:48:57;93329.22;;;5.09;27.44
21826;BME280;11075;47.944;11.776;2022-12-15T01:54:07;93301.97;;;4.79;28.50
21826;BME280;11075;47.944;11.776;2022-12-15T01:56:39;93330.94;;;6.81;25.86
21826;BME280;11075;47.944;11.776;2022-12-15T01:59:10;93326.94;;;5.87;26.92
21826;BME280;11075;47.944;11.776;2022-12-15T02:01:41;93344.31;;;6.81;25.50
21826;BME280;11075;47.944;11.776;2022-12-15T02:04:09;93339.06;;;5.57;27.11
21826;BME280;11075;47.944;11.776;2022-12-15T02:06:36;93346.00;;;5.09;27.70
21826;BME280;11075;47.944;11.776;2022-12-15T02:09:04;93342.88;;;5.84;26.61
21826;BME280;11075;47.944;11.776;2022-12-15T02:12:21;93339.25;;;4.42;28.48
21826;BME280;11075;47.944;11.776;2022-12-15T02:17:59;93339.00;;;5.81;26.86
21826;BME280;11075;47.944;11.776;2022-12-15T02:20:48;93354.22;;;6.21;26.25
21826;BME280;11075;47.944;11.776;2022-12-15T02:31:48;93370.66;;;7.10;25.06
21826;BME280;11075;47.944;11.776;2022-12-15T02:37:18;93374.03;;;6.76;25.60
21826;BME280;11075;47.944;11.776;2022-12-15T02:39:48;93384.75;;;7.07;25.13
21826;BME280;11075;47.944;11.776;2022-12-15T02:42:15;93374.22;;;6.11;26.24
21826;BME280;11075;47.944;11.776;2022-12-15T02:44:54;93378.03;;;5.58;26.96
21826;BME280;11075;47.944;11.776;2022-12-15T02:56:17;93369.50;;;2.92;29.72
21826;BME280;11075;47.944;11.776;2022-12-15T03:01:45;93368.06;;;3.53;29.46
21826;BME280;11075;47.944;11.776;2022-12-15T03:04:15;93358.25;;;4.07;28.71
21826;BME280;11075;47.944;11.776;2022-12-15T03:06:43;93371.31;;;4.00;28.96
21826;BME280;11075;47.944;11.776;2022-12-15T03:09:10;93331.34;;;1.77;31.90
21826;BME280;11075;47.944;11.776;2022-12-15T03:11:39;93355.47;;;3.41;29.82
21826;BME280;11075;47.944;11.776;2022-12-15T03:14:05;93371.78;;;4.81;28.14
21826;BME280;11075;47.944;11.776;2022-12-15T03:16:32;93382.44;;;6.46;26.23
21826;BME280;11075;47.944;11.776;2022-12-15T03:19:00;93388.38;;;5.35;27.57
21826;BME280;11075;47.944;11.776;2022-12-15T03:21:26;93390.50;;;5.17;27.56
21826;BME280;11075;47.944;11.776;2022-12-15T03:23:53;93403.31;;;6.00;26.26
21826;BME280;11075;47.944;11.776;2022-12-15T03:26:20;93396.00;;;4.63;28.64
21826;BME280;11075;47.944;11.776;2022-12-15T03:28:47;93411.53;;;5.67;26.58
21826;BME280;11075;47.944;11.776;2022-12-15T03:31:14;93417.66;;;5.19;27.24
21826;BME280;11075;47.944;11.776;2022-12-15T03:33:41;93425.94;;;6.43;25.91
21826;BME280;11075;47.944;11.776;2022-12-15T03:36:08;93420.94;;;6.29;26.18
21826;BME280;11075;47.944;11.776;2022-12-15T03:38:35;93404.56;;;3.82;29.46
21826;BME280;11075;47.944;11.776;2022-12-15T03:41:02;93406.56;;;4.39;27.88
21826;BME280;11075;47.944;11.776;2022-12-15T03:43:29;93411.22;;;4.09;28.67
21826;BME280;11075;47.944;11.776;2022-12-15T03:45:57;93406.31;;;3.99;28.37
21826;BME280;11075;47.944;11.776;2022-12-15T03:48:24;93406.78;;;4.34;28.52
21826;BME280;11075;47.944;11.776;2022-12-15T03:50:50;93403.38;;;3.41;29.33
21826;BME280;11075;47.944;11.776;2022-12-15T03:53:17;93419.97;;;5.82;26.60
21826;BME280;11075;47.944;11.776;2022-12-15T03:55:44;93418.63;;;4.57;28.01
21826;BME280;11075;47.944;11.776;2022-12-15T03:58:11;93396.34;;;2.61;30.61
21826;BME280;11075;47.944;11.776;2022-12-15T04:00:38;93427.19;;;5.08;26.88
21826;BME280;11075;47.944;11.776;2022-12-15T04:03:05;93435.00;;;5.50;26.88
21826;BME280;11075;47.944;11.776;2022-12-15T04:05:33;93417.94;;;3.73;29.01
21826;BME280;11075;47.944;11.776;2022-12-15T04:08:00;93439.00;;;5.31;26.75
21826;BME280;11075;47.944;11.776;2022-12-15T04:10:30;93434.69;;;3.15;28.87
21826;BME280;11075;47.944;11.776;2022-12-15T04:13:05;93434.81;;;4.73;27.81
21826;BME280;11075;47.944;11.776;2022-12-15T04:15:33;93423.75;;;2.53;29.71
21826;BME280;11075;47.944;11.776;2022-12-15T04:18:04;93430.56;;;3.56;28.93
21826;BME280;11075;47.944;11.776;2022-12-15T04:20:31;93427.81;;;3.43;29.39
21826;BME280;11075;47.944;11.776;2022-12-15T04:22:58;93437.66;;;5.13;26.82
21826;BME280;11075;47.944;11.776;2022-12-15T04:25:26;93442.56;;;3.91;27.91
21826;BME280;11075;47.944;11.776;2022-12-15T04:28:12;93435.03;;;3.72;28.51
21826;BME280;11075;47.944;11.776;2022-12-15T04:31:15;93431.19;;;4.24;27.82
21826;BME280;11075;47.944;11.776;2022-12-15T04:34:04;93443.09;;;4.92;27.01
21826;BME280;11075;47.944;11.776;2022-12-15T04:36:52;93442.50;;;4.00;28.43
21826;BME280;11075;47.944;11.776;2022-12-15T04:39:40;93437.44;;;3.57;28.24
21826;BME280;11075;47.944;11.776;2022-12-15T04:42:26;93469.97;;;5.57;25.64
21826;BME280;11075;47.944;11.776;2022-12-15T04:45:13;93446.13;;;3.74;28.38
21826;BME280;11075;47.944;11.776;2022-12-15T04:48:01;93478.25;;;4.20;27.26
21826;BME280;11075;47.944;11.776;2022-12-15T04:50:46;93450.50;;;1.13;31.01
21826;BME280;11075;47.944;11.776;2022-12-15T04:53:31;93479.09;;;3.91;27.60
21826;BME280;11075;47.944;11.776;2022-12-15T04:56:17;93458.69;;;3.74;28.37
21826;BME280;11075;47.944;11.776;2022-12-15T04:59:02;93478.69;;;3.80;27.60
21826;BME280;11075;47.944;11.776;2022-12-15T05:01:48;93452.56;;;1.73;30.02
21826;BME280;11075;47.944;11.776;2022-12-15T05:04:33;93461.78;;;2.36;29.67
21826;BME280;11075;47.944;11.776;2022-12-15T05:07:19;93430.63;;;0.62;32.81
21826;BME280;11075;47.944;11.776;2022-12-15T05:10:05;93462.72;;;4.76;26.52
21826;BME280;11075;47.944;11.776;2022-12-15T05:12:51;93494.47;;;5.59;25.41
21826;BME280;11075;47.944;11.776;2022-12-15T05:15:36;93483.81;;;3.26;28.32
21826;BME280;11075;47.944;11.776;2022-12-15T05:18:23;93480.09;;;4.82;26.59
21826;BME280;11075;47.944;11.776;2022-12-15T05:21:08;93475.69;;;2.50;29.03
21826;BME280;11075;47.944;11.776;2022-12-15T05:23:53;93474.34;;;4.92;26.52
21826;BME280;11075;47.944;11.776;2022-12-15T05:26:39;93489.50;;;4.46;26.69
21826;BME280;11075;47.944;11.776;2022-12-15T05:29:24;93490.34;;;5.86;25.67
21826;BME280;11075;47.944;11.776;2022-12-15T05:32:09;93479.22;;;3.65;28.21
21826;BME280;11075;47.944;11.776;2022-12-15T05:34:39;93473.44;;;2.87;29.16
21826;BME280;11075;47.944;11.776;2022-12-15T05:37:06;93486.41;;;4.77;25.77
21826;BME280;11075;47.944;11.776;2022-12-15T05:39:33;93479.84;;;3.70;27.70
21826;BME280;11075;47.944;11.776;2022-12-15T05:42:00;93499.41;;;5.12;25.95
21826;BME280;11075;47.944;11.776;2022-12-15T05:44:27;93502.75;;;4.76;25.92
21826;BME280;11075;47.944;11.776;2022-12-15T05:46:54;93489.59;;;5.03;26.59
21826;BME280;11075;47.944;11.776;2022-12-15T05:49:21;93503.53;;;5.09;26.00
21826;BME280;11075;47.944;11.776;2022-12-15T05:51:49;93510.59;;;4.93;26.41
21826;BME280;11075;47.944;11.776;2022-12-15T05:54:18;93520.28;;;4.64;27.22
21826;BME280;11075;47.944;11.776;2022-12-15T05:56:45;93519.47;;;4.85;26.86
21826;BME280;11075;47.944;11.776;2022-12-15T05:59:17;93530.72;;;5.48;25.67
21826;BME280;11075;47.944;11.776;2022-12-15T06:01:44;93516.50;;;4.24;27.08
21826;BME280;11075;47.944;11.776;2022-12-15T06:04:11;93521.00;;;4.32;26.93
21826;BME280;11075;47.944;11.776;2022-12-15T06:06:40;93500.91;;;0.82;31.27
21826;BME280;11075;47.944;11.776;2022-12-15T06:09:07;93488.53;;;2.31;30.08
21826;BME280;11075;47.944;11.776;2022-12-15T06:11:34;93474.13;;;0.16;33.49
21826;BME280;11075;47.944;11.776;2022-12-15T06:14:02;93501.16;;;2.86;29.20
21826;BME280;11075;47.944;11.776;2022-12-15T06:16:29;93501.94;;;2.77;29.24
21826;BME280;11075;47.944;11.776;2022-12-15T06:18:59;93528.13;;;4.82;26.75
21826;BME280;11075;47.944;11.776;2022-12-15T06:21:29;93534.19;;;4.70;27.06
21826;BME280;11075;47.944;11.776;2022-12-15T06:23:57;93518.28;;;1.59;30.44
21826;BME280;11075;47.944;11.776;2022-12-15T06:26:27;93518.66;;;2.95;28.81
21826;BME280;11075;47.944;11.776;2022-12-15T06:28:56;93519.09;;;3.53;28.19
21826;BME280;11075;47.944;11.776;2022-12-15T06:31:24;93515.09;;;2.83;29.18
21826;BME280;11075;47.944;11.776;2022-12-15T06:33:52;93536.16;;;3.90;27.84
21826;BME280;11075;47.944;11.776;2022-12-15T06:36:26;93544.69;;;3.36;28.03
21826;BME280;11075;47.944;11.776;2022-12-15T06:38:57;93557.47;;;3.90;27.30
21826;BME280;11075;47.944;11.776;2022-12-15T06:41:24;93564.19;;;3.58;27.63
21826;BME280;11075;47.944;11.776;2022-12-15T06:43:52;93559.69;;;4.17;27.23
21826;BME280;11075;47.944;11.776;2022-12-15T06:46:22;93545.78;;;1.32;30.80
21826;BME280;11075;47.944;11.776;2022-12-15T06:48:49;93546.25;;;3.37;28.37
21826;BME280;11075;47.944;11.776;2022-12-15T06:51:17;93554.50;;;4.62;26.91
21826;BME280;11075;47.944;11.776;2022-12-15T06:53:45;93562.91;;;3.64;27.30
21826;BME280;11075;47.944;11.776;2022-12-15T06:56:23;93572.03;;;3.92;26.88
21826;BME280;11075;47.944;11.776;2022-12-15T06:58:59;93565.88;;;3.24;28.59
21826;BME280;11075;47.944;11.776;2022-12-15T07:01:26;93569.00;;;4.02;27.22
21826;BME280;11075;47.944;11.776;2022-12-15T07:03:54;93566.44;;;3.85;27.54
21826;BME280;11075;47.944;11.776;2022-12-15T07:06:21;93553.41;;;3.92;27.61
21826;BME280;11075;47.944;11.776;2022-12-15T07:08:51;93576.00;;;4.36;27.10
21826;BME280;11075;47.944;11.776;2022-12-15T07:11:19;93574.72;;;3.92;27.20
21826;BME280;11075;47.944;11.776;2022-12-15T07:13:50;93590.38;;;4.23;26.86
21826;BME280;11075;47.944;11.776;2022-12-15T07:16:19;93584.16;;;3.81;27.54
21826;BME280;11075;47.944;11.776;2022-12-15T07:18:48;93584.31;;;3.38;27.90
21826;BME280;11075;47.944;11.776;2022-12-15T07:21:15;93578.50;;;3.36;28.23
21826;BME280;11075;47.944;11.776;2022-12-15T07:23:42;93589.16;;;4.42;26.71
21826;BME280;11075;47.944;11.776;2022-12-15T07:26:27;93603.78;;;5.19;25.85
21826;BME280;11075;47.944;11.776;2022-12-15T07:28:54;93602.28;;;4.26;27.10
21826;BME280;11075;47.944;11.776;2022-12-15T07:31:22;93602.41;;;3.62;27.71
21826;BME280;11075;47.944;11.776;2022-12-15T07:33:49;93603.16;;;4.59;26.24
21826;BME280;11075;47.944;11.776;2022-12-15T07:36:18;93603.94;;;4.10;27.08
21826;BME280;11075;47.944;11.776;2022-12-15T07:38:45;93584.53;;;2.64;28.93
21826;BME280;11075;47.944;11.776;2022-12-15T07:41:17;93575.94;;;3.57;28.59
21826;BME280;11075;47.944;11.776;2022-12-15T07:43:44;93580.41;;;1.97;30.05
21826;BME280;11075;47.944;11.776;2022-12-15T07:46:12;93548.56;;;-0.35;33.53
21826;BME280;11075;47.944;11.776;2022-12-15T07:48:40;93569.19;;;3.68;28.10
21826;BME280;11075;47.944;11.776;2022-12-15T07:51:07;93583.78;;;3.53;27.93
21826;BME280;11075;47.944;11.776;2022-12-15T07:53:45;93578.00;;;3.51;28.04
21826;BME280;11075;47.944;11.776;2022-12-15T07:56:12;93571.06;;;1.60;30.11
21826;BME280;11075;47.944;11.776;2022-12-15T07:58:40;93544.56;;;0.53;32.00
21826;BME280;11075;47.944;11.776;2022-12-15T08:01:10;93556.19;;;3.11;28.29
21826;BME280;11075;47.944;11.776;2022-12-15T08:03:38;93579.19;;;3.16;28.39
21826;BME280;11075;47.944;11.776;2022-12-15T08:06:11;93572.22;;;1.76;30.28
21826;BME280;11075;47.944;11.776;2022-12-15T08:08:40;93573.31;;;0.60;31.16
21826;BME280;11075;47.944;11.776;2022-12-15T08:11:12;93577.38;;;1.42;30.75
21826;BME280;11075;47.944;11.776;2022-12-15T08:13:41;93592.13;;;3.43;27.62
21826;BME280;11075;47.944;11.776;2022-12-15T08:16:30;93592.63;;;3.28;27.85
21826;BME280;11075;47.944;11.776;2022-12-15T08:18:57;93587.84;;;1.78;29.67
21826;BME280;11075;47.944;11.776;2022-12-15T08:21:25;93596.53;;;2.09;29.19
21826;BME280;11075;47.944;11.776;2022-12-15T08:23:53;93610.59;;;3.39;27.34
21826;BME280;11075;47.944;11.776;2022-12-15T08:26:20;93629.03;;;3.70;27.08
21826;BME280;11075;47.944;11.776;2022-12-15T08:28:55;93643.59;;;3.64;26.60
21826;BME280;11075;47.944;11.776;2022-12-15T08:31:43;93634.13;;;2.60;28.29
21826;BME280;11075;47.944;11.776;2022-12-15T08:34:10;93640.19;;;2.34;28.79
21826;BME280;11075;47.944;11.776;2022-12-15T08:36:38;93648.97;;;3.47;27.78
21826;BME280;11075;47.944;11.776;2022-12-15T08:39:05;93643.69;;;3.21;27.92
21826;BME280;11075;47.944;11.776;2022-12-15T08:41:32;93647.16;;;1.65;30.21
21826;BME280;11075;47.944;11.776;2022-12-15T08:44:00;93667.47;;;3.43;27.16
21826;BME280;11075;47.944;11.776;2022-12-15T08:46:31;93680.16;;;4.11;26.56
21826;BME280;11075;47.944;11.776;2022-12-15T08:49:01;93668.66;;;1.32;29.71
21826;BME280;11075;47.944;11.776;2022-12-15T08:51:29;93650.81;;;1.24;30.36
21826;BME280;11075;47.944;11.776;2022-12-15T08:53:58;93681.38;;;2.06;28.45
21826;BME280;11075;47.944;11.776;2022-12-15T08:56:26;93647.84;;;-0.65;32.40
21826;BME280;11075;47.944;11.776;2022-12-15T08:59:01;93661.91;;;2.28;28.93
21826;BME280;11075;47.944;11.776;2022-12-15T09:01:29;93664.84;;;3.00;27.75
21826;BME280;11075;47.944;11.776;2022-12-15T09:03:58;93671.06;;;2.61;28.14
21826;BME280;11075;47.944;11.776;2022-12-15T09:06:33;93687.84;;;3.39;26.90
21826;BME280;11075;47.944;11.776;2022-12-15T09:09:04;93663.97;;;3.78;27.09
21826;BME280;11075;47.944;11.776;2022-12-15T09:11:31;93659.22;;;2.85;28.58
21826;BME280;11075;47.944;11.776;2022-12-15T09:13:58;93662.72;;;3.58;27.20
21826;BME280;11075;47.944;11.776;2022-12-15T09:16:26;93663.13;;;5.03;26.26
21826;BME280;11075;47.944;11.776;2022-12-15T09:18:55;93659.34;;;3.31;27.47
21826;BME280;11075;47.944;11.776;2022-12-15T09:21:26;93651.13;;;2.24;29.03
21826;BME280;11075;47.944;11.776;2022-12-15T09:23:57;93646.59;;;0.78;30.25
21826;BME280;11075;47.944;11.776;2022-12-15T09:26:32;93638.41;;;2.04;29.24
21826;BME280;11075;47.944;11.776;2022-12-15T09:29:01;93627.78;;;1.11;30.18
21826;BME280;11075;47.944;11.776;2022-12-15T09:31:31;93627.59;;;3.00;27.81
21826;BME280;11075;47.944;11.776;2022-12-15T09:33:59;93621.50;;;2.65;28.55
21826;BME280;11075;47.944;11.776;2022-12-15T09:36:28;93622.72;;;1.01;30.01
21826;BME280;11075;47.944;11.776;2022-12-15T09:38:58;93616.63;;;0.78;31.26
21826;BME280;11075;47.944;11.776;2022-12-15T09:41:37;93631.16;;;1.03;30.45
21826;BME280;11075;47.944;11.776;2022-12-15T09:44:10;93615.47;;;2.17;29.11
21826;BME280;11075;47.944;11.776;2022-12-15T09:46:57;93611.31;;;-0.22;32.08
21826;BME280;11075;47.944;11.776;2022-12-15T09:49:56;93608.19;;;1.91;29.58
21826;BME280;11075;47.944;11.776;2022-12-15T09:52:24;93614.56;;;3.25;27.94
21826;BME280;11075;47.944;11.776;2022-12-15T09:54:52;93624.31;;;3.76;26.77
21826;BME280;11075;47.944;11.776;2022-12-15T09:57:24;93623.47;;;2.42;28.70
21826;BME280;11075;47.944;11.776;2022-12-15T10:05:34;93611.63;;;2.66;28.01
21826;BME280;11075;47.944;11.776;2022-12-15T10:08:28;93612.41;;;5.03;25.61
21826;BME280;11075;47.944;11.776;2022-12-15T10:13:40;93613.59;;;3.29;27.49
21826;BME280;11075;47.944;11.776;2022-12-15T10:17:20;93612.06;;;3.11;27.92
21826;BME280;11075;47.944;11.776;2022-12-15T10:22:53;93574.59;;;1.16;31.09
21826;BME280;11075;47.944;11.776;2022-12-15T10:25:23;93574.84;;;2.85;28.86
21826;BME280;11075;47.944;11.776;2022-12-15T10:31:10;93580.13;;;3.11;28.76
21826;BME280;11075;47.944;11.776;2022-12-15T10:33:41;93602.00;;;3.34;27.50
21826;BME280;11075;47.944;11.776;2022-12-15T10:36:16;93597.41;;;1.57;30.29
21826;BME280;11075;47.944;11.776;2022-12-15T10:38:45;93594.00;;;4.19;26.96
21826;BME280;11075;47.944;11.776;2022-12-15T10:41:19;93567.22;;;1.44;30.76
21826;BME280;11075;47.944;11.776;2022-12-15T10:43:49;93565.94;;;2.81;28.29
21826;BME280;11075;47.944;11.776;2022-12-15T10:46:19;93568.28;;;2.83;28.81
21826;BME280;11075;47.944;11.776;2022-12-15T10:48:58;93556.50;;;1.97;30.50
21826;BME280;11075;47.944;11.776;2022-12-15T10:51:33;93559.81;;;2.37;28.47
21826;BME280;11075;47.944;11.776;2022-12-15T10:56:56;93523.06;;;1.48;31.24
21826;BME280;11075;47.944;11.776;2022-12-15T10:59:34;93538.50;;;3.06;28.83
21826;BME280;11075;47.944;11.776;2022-12-15T11:02:26;93541.34;;;2.93;28.91
21826;BME280;11075;47.944;11.776;2022-12-15T11:05:08;93547.59;;;1.14;30.97
21826;BME280;11075;47.944;11.776;2022-12-15T11:07:45;93533.38;;;2.58;29.52
21826;BME280;11075;47.944;11.776;2022-12-15T11:10:16;93517.25;;;1.94;30.64
21826;BME280;11075;47.944;11.776;2022-12-15T11:13:15;93521.88;;;3.18;28.28
21826;BME280;11075;47.944;11.776;2022-12-15T11:15:54;93540.09;;;4.34;26.50
21826;BME280;11075;47.944;11.776;2022-12-15T11:21:27;93528.47;;;3.59;27.67
21826;BME280;11075;47.944;11.776;2022-12-15T11:24:12;93528.38;;;2.31;28.53
21826;BME280;11075;47.944;11.776;2022-12-15T11:26:43;93506.41;;;0.41;31.54
21826;BME280;11075;47.944;11.776;2022-12-15T11:31:48;93512.81;;;0.62;31.55
21826;BME280;11075;47.944;11.776;2022-12-15T11:34:18;93505.72;;;0.49;32.20
21826;BME280;11075;47.944;11.776;2022-12-15T11:56:51;93517.47;;;3.22;28.52
21826;BME280;11075;47.944;11.776;2022-12-15T12:08:26;93528.97;;;6.13;24.87
21826;BME280;11075;47.944;11.776;2022-12-15T12:11:15;93510.72;;;4.22;27.19
21826;BME280;11075;47.944;11.776;2022-12-15T12:14:02;93496.53;;;1.08;30.98
21826;BME280;11075;47.944;11.776;2022-12-15T12:22:10;93427.50;;;2.60;30.57
21826;BME280;11075;47.944;11.776;2022-12-15T12:24:47;93435.28;;;1.36;30.76
21826;BME280;11075;47.944;11.776;2022-12-15T12:30:07;93437.63;;;1.37;31.30
21826;BME280;11075;47.944;11.776;2022-12-15T12:32:47;93419.53;;;2.43;29.98
21826;BME280;11075;47.944;11.776;2022-12-15T12:35:39;93430.28;;;2.64;29.61
21826;BME280;11075;47.944;11.776;2022-12-15T12:38:10;93430.53;;;2.24;29.93
21826;BME280;11075;47.944;11.776;2022-12-15T12:41:00;93442.34;;;3.17;29.09
21826;BME280;11075;47.944;11.776;2022-12-15T12:43:54;93445.09;;;1.27;30.83
21826;BME280;11075;47.944;11.776;2022-12-15T12:46:39;93426.06;;;0.54;32.04
21826;BME280;11075;47.944;11.776;2022-12-15T12:51:39;93428.97;;;1.71;30.76
21826;BME280;11075;47.944;11.776;2022-12-15T12:57:01;93437.78;;;5.17;26.47
21826;BME280;11075;47.944;11.776;2022-12-15T12:59:57;93423.28;;;2.68;29.56
21826;BME280;11075;47.944;11.776;2022-12-15T13:07:37;93435.50;;;2.43;29.64
21826;BME280;11075;47.944;11.776;2022-12-15T13:18:16;93451.78;;;4.35;27.05
21826;BME280;11075;47.944;11.776;2022-12-15T13:20:46;93432.63;;;3.50;28.22
21826;BME280;11075;47.944;11.776;2022-12-15T13:31:21;93432.41;;;4.59;27.24
21826;BME280;11075;47.944;11.776;2022-12-15T13:44:39;93407.09;;;1.92;30.59
21826;BME280;11075;47.944;11.776;2022-12-15T13:49:56;93423.41;;;2.71;28.98
21826;BME280;11075;47.944;11.776;2022-12-15T13:52:47;93409.44;;;1.93;30.17
21826;BME280;11075;47.944;11.776;2022-12-15T13:55:39;93414.44;;;1.95;30.22
21826;BME280;11075;47.944;11.776;2022-12-15T13:58:17;93382.06;;;0.84;32.69
21826;BME280;11075;47.944;11.776;2022-12-15T14:00:49;93403.78;;;2.21;30.38
21826;BME280;11075;47.944;11.776;2022-12-15T14:03:17;93413.50;;;1.82;30.03
21826;BME280;11075;47.944;11.776;2022-12-15T14:05:53;93402.19;;;1.50;30.55
21826;BME280;11075;47.944;11.776;2022-12-15T14:08:22;93398.47;;;0.33;31.91
21826;BME280;11075;47.944;11.776;2022-12-15T14:10:57;93380.63;;;-0.29;33.73
21826;BME280;11075;47.944;11.776;2022-12-15T14:13:29;93386.41;;;0.18;32.96
21826;BME280;11075;47.944;11.776;2022-12-15T14:18:41;93370.06;;;1.61;31.51
21826;BME280;11075;47.944;11.776;2022-12-15T14:21:23;93387.81;;;2.38;29.59
21826;BME280;11075;47.944;11.776;2022-12-15T14:23:50;93400.66;;;3.50;27.80
21826;BME280;11075;47.944;11.776;2022-12-15T14:26:37;93400.94;;;4.20;27.00
21826;BME280;11075;47.944;11.776;2022-12-15T14:29:08;93388.50;;;2.09;29.96
21826;BME280;11075;47.944;11.776;2022-12-15T14:31:36;93390.72;;;2.71;29.09
21826;BME280;11075;47.944;11.776;2022-12-15T14:34:43;93395.38;;;1.84;29.66
21826;BME280;11075;47.944;11.776;2022-12-15T14:37:09;93388.34;;;2.05;29.85
21826;BME280;11075;47.944;11.776;2022-12-15T14:39:43;93391.53;;;3.30;28.41
21826;BME280;11075;47.944;11.776;2022-12-15T14:42:22;93378.63;;;1.49;30.55
21826;BME280;11075;47.944;11.776;2022-12-15T14:44:51;93376.78;;;1.93;30.02
21826;BME280;11075;47.944;11.776;2022-12-15T14:47:29;93393.19;;;3.14;28.16
21826;BME280;11075;47.944;11.776;2022-12-15T14:49:59;93387.47;;;2.48;29.01
21826;BME280;11075;47.944;11.776;2022-12-15T14:52:38;93378.34;;;2.02;29.51
21826;BME280;11075;47.944;11.776;2022-12-15T14:55:25;93394.06;;;2.97;28.53
21826;BME280;11075;47.944;11.776;2022-12-15T14:57:53;93397.41;;;2.13;28.68
21826;BME280;11075;47.944;11.776;2022-12-15T15:00:30;93377.09;;;2.00;29.80
21826;BME280;11075;47.944;11.776;2022-12-15T15:03:37;93371.59;;;2.13;29.39
21826;BME280;11075;47.944;11.776;2022-12-15T15:08:49;93361.88;;;2.35;29.59
21826;BME280;11075;47.944;11.776;2022-12-15T15:11:34;93370.59;;;2.44;29.12
21826;BME280;11075;47.944;11.776;2022-12-15T15:14:07;93371.91;;;2.85;28.78
21826;BME280;11075;47.944;11.776;2022-12-15T15:16:35;93356.94;;;1.90;30.06
21826;BME280;11075;47.944;11.776;2022-12-15T15:19:02;93345.94;;;1.05;31.40
21826;BME280;11075;47.944;11.776;2022-12-15T15:21:35;93370.22;;;3.09;28.27
21826;BME280;11075;47.944;11.776;2022-12-15T15:24:21;93382.53;;;3.73;27.06
21826;BME280;11075;47.944;11.776;2022-12-15T15:26:51;93396.53;;;4.03;26.93
21826;BME280;11075;47.944;11.776;2022-12-15T15:29:39;93369.19;;;0.60;31.18
21826;BME280;11075;47.944;11.776;2022-12-15T15:32:15;93364.59;;;2.00;29.95
21826;BME280;11075;47.944;11.776;2022-12-15T15:34:44;93371.72;;;2.90;28.58
21826;BME280;11075;47.944;11.776;2022-12-15T15:37:20;93375.81;;;3.17;29.32
21826;BME280;11075;47.944;11.776;2022-12-15T15:39:49;93373.16;;;1.37;30.43
21826;BME280;11075;47.944;11.776;2022-12-15T15:42:17;93356.47;;;0.79;31.49
21826;BME280;11075;47.944;11.776;2022-12-15T15:44:45;93370.25;;;3.30;28.06
21826;BME280;11075;47.944;11.776;2022-12-15T15:47:25;93368.97;;;2.69;28.88
21826;BME280;11075;47.944;11.776;2022-12-15T15:49:53;93369.72;;;1.36;30.10
21826;BME280;11075;47.944;11.776;2022-12-15T15:52:24;93336.53;;;-1.33;34.69
21826;BME280;11075;47.944;11.776;2022-12-15T15:54:52;93340.25;;;1.72;30.46